createdAt,value
2022-09-06T00:00:59.574Z,7.68
2022-09-06T00:03:29.414Z,3.33
2022-09-06T00:05:56.645Z,3.47
2022-09-06T00:08:26.212Z,6.72
2022-09-06T00:11:01.346Z,4.63
2022-09-06T00:13:31.345Z,4.25
2022-09-06T00:16:05.672Z,4.93
2022-09-06T00:18:33.006Z,3.67
2022-09-06T00:21:13.015Z,3.65
2022-09-06T00:23:42.650Z,4.68
2022-09-06T00:26:10.409Z,3.80
2022-09-06T00:28:41.132Z,2.97
2022-09-06T00:31:20.641Z,3.65
2022-09-06T00:33:48.809Z,3.08
2022-09-06T00:36:17.049Z,3.13
2022-09-06T00:38:47.289Z,4.70
2022-09-06T00:41:19.976Z,3.60
2022-09-06T00:43:47.227Z,4.72
2022-09-06T00:46:19.537Z,5.03
2022-09-06T00:48:50.765Z,4.78
2022-09-06T00:51:20.764Z,4.10
2022-09-06T00:53:51.074Z,4.88
2022-09-06T00:56:21.597Z,4.38
2022-09-06T00:58:52.045Z,4.38
2022-09-06T01:01:21.534Z,4.00
2022-09-06T01:03:49.169Z,4.32
2022-09-06T01:06:26.521Z,2.63
2022-09-06T01:09:20.364Z,4.07
2022-09-06T01:12:09.638Z,6.20
2022-09-06T01:15:24.411Z,6.40
2022-09-06T01:18:16.141Z,3.33
2022-09-06T01:21:01.014Z,4.18
2022-09-06T01:24:04.333Z,2.78
2022-09-06T01:27:15.241Z,3.60
2022-09-06T01:29:55.300Z,3.22
2022-09-06T01:32:48.039Z,5.05
2022-09-06T01:35:34.977Z,5.80
2022-09-06T01:38:03.659Z,3.42
2022-09-06T01:40:30.898Z,4.18
2022-09-06T01:42:59.177Z,6.60
2022-09-06T01:45:54.070Z,4.65
2022-09-06T01:48:39.353Z,6.25
2022-09-06T01:51:30.780Z,4.35
2022-09-06T01:54:20.688Z,2.90
2022-09-06T01:57:13.931Z,4.63
2022-09-06T02:00:03.530Z,3.55
2022-09-06T02:03:02.846Z,3.10
2022-09-06T02:06:17.586Z,3.60
2022-09-06T02:08:49.671Z,4.05
2022-09-06T02:11:17.357Z,6.55
2022-09-06T02:13:52.828Z,5.70
2022-09-06T02:16:26.811Z,5.75
2022-09-06T02:19:00.714Z,5.70
2022-09-06T02:21:35.658Z,3.55
2022-09-06T02:24:08.100Z,4.82
2022-09-06T02:26:42.407Z,7.57
2022-09-06T02:29:10.509Z,6.47
2022-09-06T02:31:51.119Z,6.85
2022-09-06T02:34:22.281Z,4.72
2022-09-06T02:36:50.335Z,4.03
2022-09-06T02:39:22.294Z,4.53
2022-09-06T02:41:49.683Z,4.97
2022-09-06T02:44:17.418Z,5.13
2022-09-06T02:46:44.684Z,6.43
2022-09-06T02:49:12.371Z,4.45
2022-09-06T02:51:39.994Z,4.00
2022-09-06T02:54:07.604Z,4.75
2022-09-06T02:56:36.627Z,5.30
2022-09-06T02:59:07.252Z,5.93
2022-09-06T03:01:34.934Z,5.88
2022-09-06T03:04:02.811Z,5.03
2022-09-06T03:06:33.108Z,5.38
2022-09-06T03:09:00.862Z,5.65
2022-09-06T03:11:30.610Z,6.07
2022-09-06T03:14:00.122Z,5.72
2022-09-06T03:16:32.287Z,5.88
2022-09-06T03:18:59.590Z,4.95
2022-09-06T03:21:29.556Z,7.90
2022-09-06T03:23:57.252Z,7.22
2022-09-06T03:26:24.829Z,6.70
2022-09-06T03:28:54.353Z,5.43
2022-09-06T03:31:28.708Z,7.95
2022-09-06T03:33:56.431Z,5.07
2022-09-06T03:36:26.184Z,8.38
2022-09-06T03:38:55.893Z,7.35
2022-09-06T03:41:26.164Z,10.15
2022-09-06T03:43:55.564Z,6.57
2022-09-06T03:46:22.872Z,6.10
2022-09-06T03:48:51.636Z,5.28
2022-09-06T03:51:18.919Z,9.07
2022-09-06T03:53:46.218Z,7.70
2022-09-06T03:56:13.462Z,7.03
2022-09-06T03:58:40.725Z,7.78
2022-09-06T04:01:10.503Z,7.47
2022-09-06T04:03:38.607Z,7.82
2022-09-06T04:06:06.578Z,9.35
2022-09-06T04:08:37.041Z,9.68
2022-09-06T04:11:05.188Z,11.45
2022-09-06T04:13:33.260Z,9.60
2022-09-06T04:16:03.136Z,11.82
2022-09-06T04:18:31.252Z,10.68
2022-09-06T04:20:59.160Z,10.18
2022-09-06T04:23:28.549Z,8.52
2022-09-06T04:26:00.220Z,7.63
2022-09-06T04:28:29.005Z,6.88
2022-09-06T04:31:05.133Z,12.50
2022-09-06T04:33:34.853Z,8.20
2022-09-06T04:36:06.930Z,9.48
2022-09-06T04:38:42.177Z,7.65
2022-09-06T04:41:13.904Z,9.57
2022-09-06T04:43:43.493Z,5.43
2022-09-06T04:46:24.974Z,9.68
2022-09-06T04:48:54.251Z,10.43
2022-09-06T04:51:22.623Z,5.32
2022-09-06T04:53:50.549Z,8.18
2022-09-06T04:56:24.567Z,6.93
2022-09-06T04:58:57.725Z,6.28
2022-09-06T05:01:26.354Z,6.50
2022-09-06T05:03:57.078Z,7.90
2022-09-06T05:06:27.451Z,6.38
2022-09-06T05:08:54.719Z,11.27
2022-09-06T05:11:22.412Z,7.00
2022-09-06T05:13:50.352Z,6.32
2022-09-06T05:16:20.343Z,8.85
2022-09-06T05:18:49.866Z,7.80
2022-09-06T05:21:17.742Z,6.90
2022-09-06T05:23:46.415Z,6.03
2022-09-06T05:26:13.762Z,6.55
2022-09-06T05:28:41.479Z,9.07
2022-09-06T05:31:10.994Z,7.63
2022-09-06T05:33:38.667Z,5.97
2022-09-06T05:36:09.116Z,7.15
2022-09-06T05:38:39.486Z,10.68
2022-09-06T05:41:07.112Z,11.70
2022-09-06T05:43:37.299Z,5.97
2022-09-06T05:46:07.496Z,8.23
2022-09-06T05:48:37.148Z,8.30
2022-09-06T05:51:07.189Z,6.40
2022-09-06T05:53:38.366Z,6.78
2022-09-06T05:56:08.906Z,6.50
2022-09-06T05:58:39.034Z,5.68
2022-09-06T06:01:27.701Z,6.75
2022-09-06T06:04:06.020Z,6.32
2022-09-06T06:06:34.509Z,6.38
2022-09-06T06:09:06.824Z,7.70
2022-09-06T06:11:34.093Z,7.22
2022-09-06T06:14:02.755Z,5.75
2022-09-06T06:16:32.914Z,9.20
2022-09-06T06:19:00.754Z,11.55
2022-09-06T06:21:32.095Z,9.05
2022-09-06T06:24:04.519Z,7.05
2022-09-06T06:26:36.086Z,9.85
2022-09-06T06:29:09.450Z,9.10
2022-09-06T06:34:08.480Z,8.57
2022-09-06T06:36:41.231Z,8.15
2022-09-06T06:39:09.478Z,7.40
2022-09-06T06:41:36.842Z,6.57
2022-09-06T06:44:05.692Z,6.97
2022-09-06T06:46:38.193Z,7.28
2022-09-06T06:49:08.100Z,8.67
2022-09-06T06:51:41.472Z,5.47
2022-09-06T06:56:38.705Z,4.28
2022-09-06T06:59:07.813Z,5.13
2022-09-06T07:01:39.060Z,6.20
2022-09-06T07:04:10.546Z,3.72
2022-09-06T07:12:31.283Z,5.72
2022-09-06T07:14:58.554Z,4.93
2022-09-06T07:17:28.877Z,2.83
2022-09-06T07:20:14.513Z,4.60
2022-09-06T07:22:47.685Z,2.75
2022-09-06T07:25:21.214Z,3.67
2022-09-06T07:27:58.458Z,2.55
2022-09-06T07:30:26.331Z,3.83
2022-09-06T07:32:56.769Z,4.20
2022-09-06T07:35:25.021Z,5.30
2022-09-06T07:37:58.519Z,4.53
2022-09-06T07:40:28.797Z,2.97
2022-09-06T07:43:02.869Z,3.88
2022-09-06T07:45:32.784Z,2.17
2022-09-06T07:48:04.664Z,3.38
2022-09-06T07:50:51.112Z,1.77
2022-09-06T07:53:29.028Z,12.15
2022-09-06T07:55:59.369Z,4.15
2022-09-06T07:58:27.216Z,3.60
2022-09-06T08:00:54.550Z,6.90
2022-09-06T08:03:21.959Z,2.03
2022-09-06T08:11:25.552Z,4.90
2022-09-06T08:13:59.223Z,5.80
2022-09-06T08:16:30.553Z,3.03
2022-09-06T08:19:00.024Z,3.78
2022-09-06T08:21:33.011Z,3.80
2022-09-06T08:24:02.893Z,3.67
2022-09-06T08:26:32.226Z,3.90
2022-09-06T08:29:05.910Z,3.97
2022-09-06T08:31:35.555Z,3.08
2022-09-06T08:34:03.222Z,3.50
2022-09-06T08:36:30.898Z,2.83
2022-09-06T08:38:59.359Z,4.38
2022-09-06T08:41:55.066Z,2.95
2022-09-06T08:44:58.884Z,3.55
2022-09-06T08:47:26.703Z,5.18
2022-09-06T08:50:06.824Z,8.60
2022-09-06T08:53:23.310Z,1.92
2022-09-06T08:56:05.018Z,4.35
2022-09-06T08:59:24.492Z,2.42
2022-09-06T09:02:12.123Z,5.07
2022-09-06T09:04:49.505Z,5.78
2022-09-06T09:07:27.945Z,2.85
2022-09-06T09:09:57.630Z,3.70
2022-09-06T09:12:26.381Z,2.25
2022-09-06T09:15:11.696Z,2.53
2022-09-06T09:17:41.523Z,4.32
2022-09-06T09:20:09.145Z,3.95
2022-09-06T09:22:37.027Z,4.40
2022-09-06T09:25:06.462Z,4.78
2022-09-06T09:27:37.378Z,6.13
2022-09-06T09:32:54.461Z,3.17
2022-09-06T09:35:34.307Z,2.53
2022-09-06T09:38:16.326Z,4.28
2022-09-06T09:40:53.048Z,3.35
2022-09-06T09:43:51.545Z,2.28
2022-09-06T09:46:27.573Z,3.90
2022-09-06T09:49:11.466Z,3.42
2022-09-06T09:51:44.841Z,4.47
2022-09-06T09:54:15.084Z,5.05
2022-09-06T09:56:53.931Z,5.43
2022-09-06T09:59:25.895Z,5.03
2022-09-06T10:02:03.863Z,4.25
2022-09-06T10:04:45.209Z,6.07
2022-09-06T10:07:26.183Z,3.13
2022-09-06T10:10:06.856Z,9.23
2022-09-06T10:12:38.826Z,5.90
2022-09-06T10:15:09.231Z,3.72
2022-09-06T10:17:47.752Z,4.72
2022-09-06T10:20:17.920Z,3.42
2022-09-06T10:23:11.682Z,7.35
2022-09-06T10:25:53.182Z,6.93
2022-09-06T10:28:46.082Z,6.28
2022-09-06T10:31:36.885Z,5.10
2022-09-06T10:34:35.057Z,7.75
2022-09-06T10:37:31.571Z,7.60
2022-09-06T10:40:10.137Z,6.82
2022-09-06T10:42:53.829Z,4.57
2022-09-06T10:45:58.739Z,3.17
2022-09-06T10:48:34.797Z,3.65
2022-09-06T10:51:19.212Z,3.63
2022-09-06T10:54:09.895Z,3.70
2022-09-06T10:56:55.989Z,6.07
2022-09-06T10:59:41.677Z,3.72
2022-09-06T11:02:30.551Z,5.95
2022-09-06T11:10:51.489Z,4.22
2022-09-06T11:13:23.450Z,3.00
2022-09-06T11:16:21.219Z,5.53
2022-09-06T11:18:57.505Z,4.88
2022-09-06T11:21:36.529Z,2.28
2022-09-06T11:24:15.342Z,3.92
2022-09-06T11:27:05.695Z,5.07
2022-09-06T11:29:34.791Z,3.20
2022-09-06T11:32:19.835Z,3.60
2022-09-06T11:34:58.597Z,4.15
2022-09-06T11:37:40.727Z,2.53
2022-09-06T11:42:59.328Z,1.98
2022-09-06T11:45:46.085Z,3.08
2022-09-06T11:48:35.289Z,3.85
2022-09-06T11:51:10.901Z,2.67
2022-09-06T11:53:50.196Z,2.10
2022-09-06T11:56:29.395Z,1.98
2022-09-06T11:59:04.681Z,2.60
2022-09-06T12:01:32.362Z,2.40
2022-09-06T12:06:40.910Z,2.60
2022-09-06T12:09:35.578Z,2.60
2022-09-06T12:12:05.977Z,4.70
2022-09-06T12:14:43.003Z,1.85
2022-09-06T12:17:13.159Z,2.50
2022-09-06T12:19:51.765Z,3.22
2022-09-06T12:22:35.826Z,3.50
2022-09-06T12:25:36.994Z,4.50
2022-09-06T12:28:20.182Z,2.00
2022-09-06T12:33:38.804Z,2.83
2022-09-06T12:36:29.813Z,3.25
2022-09-06T12:39:03.114Z,4.20
2022-09-06T12:41:38.394Z,1.67
2022-09-06T12:44:09.198Z,2.60
2022-09-06T12:46:45.398Z,2.47
2022-09-06T12:49:17.515Z,1.75
2022-09-06T12:51:44.747Z,5.60
2022-09-06T12:54:25.064Z,3.90
2022-09-06T12:56:55.945Z,2.25
2022-09-06T12:59:25.424Z,1.80
2022-09-06T13:01:52.716Z,1.77
2022-09-06T13:04:32.363Z,3.83
2022-09-06T13:07:01.929Z,1.65
2022-09-06T13:09:30.630Z,2.20
2022-09-06T13:12:10.023Z,3.10
2022-09-06T13:14:39.589Z,3.28
2022-09-06T13:17:07.525Z,3.03
2022-09-06T13:19:39.399Z,4.22
2022-09-06T13:22:11.639Z,5.20
2022-09-06T13:24:49.076Z,3.67
2022-09-06T13:27:36.613Z,3.78
2022-09-06T13:30:09.352Z,2.13
2022-09-06T13:32:49.534Z,1.58
2022-09-06T13:35:29.294Z,1.55
2022-09-06T13:38:24.782Z,2.03
2022-09-06T13:43:45.049Z,1.50
2022-09-06T13:46:15.322Z,3.30
2022-09-06T13:48:44.686Z,1.73
2022-09-06T13:51:15.120Z,1.90
2022-09-06T13:53:44.605Z,1.63
2022-09-06T13:56:14.048Z,1.95
2022-09-06T13:58:41.945Z,1.77
2022-09-06T14:01:14.281Z,1.52
2022-09-06T14:03:44.635Z,3.15
2022-09-06T14:06:12.569Z,3.17
2022-09-06T14:09:05.859Z,4.75
2022-09-06T14:11:32.236Z,2.25
2022-09-06T14:14:00.084Z,2.10
2022-09-06T14:16:27.361Z,2.63
2022-09-06T14:18:54.711Z,1.38
2022-09-06T14:21:25.132Z,2.10
2022-09-06T14:23:55.334Z,2.67
2022-09-06T14:26:23.271Z,4.18
2022-09-06T14:28:51.246Z,1.63
2022-09-06T14:31:23.592Z,2.80
2022-09-06T14:33:51.182Z,1.70
2022-09-06T14:36:21.693Z,2.90
2022-09-06T14:38:50.255Z,2.58
2022-09-06T14:41:19.732Z,1.42
2022-09-06T14:43:52.533Z,2.25
2022-09-06T14:46:23.880Z,3.30
2022-09-06T14:49:11.239Z,2.58
2022-09-06T14:51:41.007Z,2.40
2022-09-06T14:54:11.368Z,2.50
2022-09-06T14:56:42.126Z,2.00
2022-09-06T14:59:10.108Z,1.50
2022-09-06T15:01:41.175Z,3.42
2022-09-06T15:04:11.058Z,4.32
2022-09-06T15:06:40.756Z,1.23
2022-09-06T15:09:08.241Z,1.88
2022-09-06T15:11:43.435Z,2.08
2022-09-06T15:14:19.411Z,3.47
2022-09-06T15:16:52.024Z,1.73
2022-09-06T15:19:23.152Z,3.00
2022-09-06T15:21:52.772Z,1.45
2022-09-06T15:24:23.496Z,1.25
2022-09-06T15:26:51.466Z,2.65
2022-09-06T15:29:20.956Z,2.10
2022-09-06T15:31:51.948Z,1.55
2022-09-06T15:34:25.316Z,1.27
2022-09-06T15:36:56.947Z,1.67
2022-09-06T15:39:24.714Z,3.13
2022-09-06T15:41:52.077Z,2.95
2022-09-06T15:44:21.522Z,1.52
2022-09-06T15:46:51.636Z,3.40
2022-09-06T15:49:28.355Z,2.03
2022-09-06T15:51:57.947Z,1.92
2022-09-06T15:54:45.455Z,4.30
2022-09-06T15:57:14.829Z,3.20
2022-09-06T15:59:44.785Z,1.52
2022-09-06T16:02:13.212Z,2.90
2022-09-06T16:04:41.883Z,2.20
2022-09-06T16:07:09.769Z,2.88
2022-09-06T16:09:39.860Z,1.00
2022-09-06T16:12:10.197Z,2.47
2022-09-06T16:14:38.432Z,2.72
2022-09-06T16:17:06.302Z,0.90
2022-09-06T16:19:33.866Z,2.25
2022-09-06T16:22:05.670Z,2.20
2022-09-06T16:24:33.200Z,1.83
2022-09-06T16:27:01.208Z,2.17
2022-09-06T16:29:28.475Z,3.10
2022-09-06T16:31:59.948Z,2.38
2022-09-06T16:34:29.905Z,2.78
2022-09-06T16:36:57.558Z,1.38
2022-09-06T16:39:25.447Z,1.77
2022-09-06T16:41:53.397Z,3.28
2022-09-06T16:44:22.907Z,2.25
2022-09-06T16:46:53.921Z,1.45
2022-09-06T16:49:23.863Z,2.65
2022-09-06T16:51:51.144Z,2.47
2022-09-06T16:54:19.347Z,1.90
2022-09-06T16:56:46.643Z,2.83
2022-09-06T16:59:17.709Z,3.42
2022-09-06T17:01:45.761Z,2.83
2022-09-06T17:04:15.472Z,4.13
2022-09-06T17:06:44.710Z,2.67
2022-09-06T17:09:20.041Z,2.33
2022-09-06T17:11:50.323Z,2.33
2022-09-06T17:14:20.648Z,3.33
2022-09-06T17:17:06.163Z,2.35
2022-09-06T17:19:38.286Z,2.33
2022-09-06T17:22:07.073Z,1.83
2022-09-06T17:24:34.956Z,2.63
2022-09-06T17:27:03.665Z,2.80
2022-09-06T17:29:33.197Z,3.20
2022-09-06T17:32:03.879Z,2.38
2022-09-06T17:34:31.202Z,1.88
2022-09-06T17:36:58.430Z,5.93
2022-09-06T17:39:25.773Z,4.25
2022-09-06T17:41:56.378Z,2.95
2022-09-06T17:44:25.594Z,3.30
2022-09-06T17:49:43.357Z,2.28
2022-09-06T17:52:13.915Z,2.58
2022-09-06T17:54:41.241Z,2.40
2022-09-06T17:57:13.089Z,2.45
2022-09-06T17:59:41.061Z,2.45
2022-09-06T18:02:08.935Z,2.97
2022-09-06T18:04:36.696Z,4.47
2022-09-06T18:07:04.192Z,3.08
2022-09-06T18:09:31.479Z,2.35
2022-09-06T18:12:01.992Z,3.08
2022-09-06T18:14:29.567Z,3.40
2022-09-06T18:16:57.041Z,2.47
2022-09-06T18:19:24.800Z,3.33
2022-09-06T18:21:52.513Z,1.90
2022-09-06T18:24:22.450Z,2.90
2022-09-06T18:26:50.224Z,4.25
2022-09-06T18:29:20.791Z,4.28
2022-09-06T18:31:55.014Z,3.63
2022-09-06T18:34:22.567Z,3.20
2022-09-06T18:36:49.934Z,4.82
2022-09-06T18:39:19.009Z,2.50
2022-09-06T18:42:02.336Z,3.10
2022-09-06T18:44:32.721Z,3.60
2022-09-06T18:47:06.702Z,4.30
2022-09-06T18:49:35.237Z,4.47
2022-09-06T18:52:04.857Z,2.90
2022-09-06T18:54:35.007Z,2.53
2022-09-06T18:57:04.784Z,7.50
2022-09-06T18:59:32.372Z,3.13
2022-09-06T19:02:02.234Z,4.28
2022-09-06T19:04:31.888Z,4.15
2022-09-06T19:07:02.604Z,4.03
2022-09-06T19:09:29.894Z,2.65
2022-09-06T19:11:57.142Z,3.03
2022-09-06T19:14:24.968Z,2.63
2022-09-06T19:16:54.389Z,4.72
2022-09-06T19:19:24.180Z,2.70
2022-09-06T19:21:56.096Z,2.50
2022-09-06T19:24:24.580Z,3.55
2022-09-06T19:26:52.945Z,2.65
2022-09-06T19:29:20.821Z,4.97
2022-09-06T19:31:49.349Z,4.78
2022-09-06T19:34:19.633Z,3.58
2022-09-06T19:36:55.187Z,4.18
2022-09-06T19:39:22.694Z,2.65
2022-09-06T19:41:50.604Z,3.78
2022-09-06T19:44:20.994Z,3.00
2022-09-06T19:46:50.868Z,4.40
2022-09-06T19:49:19.845Z,5.15
2022-09-06T19:51:48.961Z,2.88
2022-09-06T19:54:17.699Z,6.18
2022-09-06T19:56:48.794Z,3.30
2022-09-06T19:59:17.698Z,6.15
2022-09-06T20:01:46.564Z,2.70
2022-09-06T20:04:15.167Z,3.60
2022-09-06T20:06:42.581Z,3.80
2022-09-06T20:09:10.686Z,3.95
2022-09-06T20:11:42.055Z,7.55
2022-09-06T20:14:10.764Z,5.40
2022-09-06T20:16:41.849Z,5.13
2022-09-06T20:19:11.966Z,3.95
2022-09-06T20:21:39.337Z,5.15
2022-09-06T20:24:06.855Z,8.00
2022-09-06T20:26:34.191Z,2.63
2022-09-06T20:29:05.134Z,2.38
2022-09-06T20:31:33.839Z,3.50
2022-09-06T20:34:04.180Z,2.55
2022-09-06T20:36:33.017Z,5.00
2022-09-06T20:39:00.326Z,3.97
2022-09-06T20:41:27.899Z,3.55
2022-09-06T20:43:59.889Z,2.85
2022-09-06T20:46:29.727Z,3.75
2022-09-06T20:49:04.744Z,4.25
2022-09-06T20:51:36.592Z,6.07
2022-09-06T20:54:05.946Z,5.63
2022-09-06T20:56:43.076Z,4.13
2022-09-06T20:59:13.015Z,4.80
2022-09-06T21:01:43.508Z,4.30
2022-09-06T21:04:14.083Z,3.75
2022-09-06T21:06:43.153Z,3.70
2022-09-06T21:09:14.656Z,3.55
2022-09-06T21:11:46.889Z,5.00
2022-09-06T21:14:18.766Z,6.22
2022-09-06T21:16:50.828Z,4.90
2022-09-06T21:19:21.542Z,3.42
2022-09-06T21:21:51.270Z,6.35
2022-09-06T21:24:20.698Z,5.80
2022-09-06T21:26:48.436Z,6.35
2022-09-06T21:29:15.728Z,5.57
2022-09-06T21:31:43.515Z,6.38
2022-09-06T21:34:17.017Z,6.40
2022-09-06T21:36:49.669Z,6.95
2022-09-06T21:39:19.814Z,8.25
2022-09-06T21:41:47.942Z,11.35
2022-09-06T21:44:17.936Z,9.38
2022-09-06T21:46:45.773Z,8.32
2022-09-06T21:49:13.961Z,7.93
2022-09-06T21:51:42.328Z,10.48
2022-09-06T21:54:09.953Z,8.93
2022-09-06T21:56:38.808Z,8.98
2022-09-06T21:59:07.623Z,6.65
2022-09-06T22:01:37.025Z,8.30
2022-09-06T22:04:07.472Z,5.60
2022-09-06T22:06:36.269Z,6.38
2022-09-06T22:09:14.637Z,6.65
2022-09-06T22:11:44.084Z,6.40
2022-09-06T22:14:17.243Z,8.60
2022-09-06T22:16:44.594Z,7.43
2022-09-06T22:19:12.407Z,4.03
2022-09-06T22:21:40.191Z,7.25
2022-09-06T22:24:10.870Z,5.70
2022-09-06T22:26:39.997Z,4.93
2022-09-06T22:29:09.245Z,6.65
2022-09-06T22:31:39.505Z,5.13
2022-09-06T22:34:09.302Z,3.97
2022-09-06T22:36:37.366Z,5.38
2022-09-06T22:39:07.114Z,5.25
2022-09-06T22:41:36.724Z,3.97
2022-09-06T22:44:04.915Z,6.90
2022-09-06T22:46:35.840Z,6.45
2022-09-06T22:49:05.737Z,7.13
2022-09-06T22:51:33.316Z,4.72
2022-09-06T22:54:03.078Z,5.65
2022-09-06T22:56:33.492Z,6.43
2022-09-06T22:59:01.242Z,6.40
2022-09-06T23:01:29.282Z,5.13
2022-09-06T23:03:56.539Z,5.43
2022-09-06T23:06:23.771Z,5.82
2022-09-06T23:08:53.929Z,4.57
2022-09-06T23:11:21.412Z,4.35
2022-09-06T23:13:48.705Z,4.95
2022-09-06T23:16:19.142Z,7.35
2022-09-06T23:18:47.610Z,7.97
2022-09-06T23:21:18.597Z,6.68
2022-09-06T23:23:47.674Z,5.72
2022-09-06T23:26:20.665Z,5.15
2022-09-06T23:29:00.726Z,5.55
2022-09-06T23:31:31.536Z,4.93
2022-09-06T23:34:00.422Z,5.22
2022-09-06T23:36:30.602Z,5.50
2022-09-06T23:38:58.171Z,5.03
2022-09-06T23:41:25.579Z,9.38
2022-09-06T23:43:52.865Z,4.03
2022-09-06T23:46:42.586Z,5.75
2022-09-06T23:49:12.950Z,4.97
2022-09-06T23:51:59.031Z,6.45
2022-09-06T23:54:27.396Z,5.15
2022-09-06T23:56:56.754Z,5.10
2022-09-06T23:59:24.119Z,5.47
